Time;durP1;ratioP1;P1;durP2;ratioP2;P2;SDS_P1;SDS_P2;PMS_P1;PMS_P2;Temp;Humidity;BMP_temperature;BMP_pressure;BME280_temperature;BME280_humidity;BME280_pressure;Samples;Min_cycle;Max_cycle;Signal;HPM_P1;HPM_P2
2023/01/07 00:01:22;;;;;;;5.65;4.43;;;12.10;99.90;;;;;;5083693;28;20052;-40
2023/01/07 00:03:49;;;;;;;5.65;5.05;;;12.10;99.90;;;;;;5083443;28;20040;-38
2023/01/07 00:06:25;;;;;;;5.53;4.90;;;12.00;99.90;;;;;;5082593;28;20035;-37
2023/01/07 00:08:52;;;;;;;5.85;5.28;;;12.00;99.90;;;;;;5084093;28;20020;-39
2023/01/07 00:11:20;;;;;;;5.60;5.00;;;12.00;99.90;;;;;;5083111;28;20028;-37
2023/01/07 00:13:48;;;;;;;5.63;5.07;;;12.00;99.90;;;;;;5083444;28;20229;-39
2023/01/07 00:16:16;;;;;;;6.07;5.40;;;12.00;99.90;;;;;;5087431;28;20031;-37
2023/01/07 00:18:42;;;;;;;6.03;5.40;;;12.00;99.90;;;;;;5086888;28;20139;-40
2023/01/07 00:21:11;;;;;;;6.00;5.40;;;12.00;99.90;;;;;;5087367;28;20032;-37
2023/01/07 00:23:38;;;;;;;5.65;5.05;;;12.00;99.90;;;;;;5087903;28;20107;-37
2023/01/07 00:26:13;;;;;;;4.72;4.32;;;11.90;99.90;;;;;;5086488;28;20534;-40
2023/01/07 00:28:40;;;;;;;5.30;4.80;;;12.00;99.90;;;;;;5087755;28;20020;-40
2023/01/07 00:31:08;;;;;;;6.20;4.90;;;12.00;99.90;;;;;;5086413;28;20143;-38
2023/01/07 00:33:34;;;;;;;4.80;4.30;;;11.90;99.90;;;;;;5086146;28;20024;-38
2023/01/07 00:36:01;;;;;;;4.32;3.95;;;11.90;99.90;;;;;;5087043;28;20105;-40
2023/01/07 00:38:27;;;;;;;4.97;4.53;;;11.90;99.90;;;;;;5087297;28;20024;-39
2023/01/07 00:40:53;;;;;;;4.70;3.95;;;11.90;99.90;;;;;;5086018;28;20142;-40
2023/01/07 00:43:18;;;;;;;4.78;4.38;;;11.90;99.90;;;;;;5086367;28;20559;-40
2023/01/07 00:45:44;;;;;;;4.90;4.13;;;11.90;99.90;;;;;;5087617;28;20028;-39
2023/01/07 00:48:10;;;;;;;5.22;4.00;;;11.90;99.90;;;;;;5086197;28;20694;-37
2023/01/07 00:50:37;;;;;;;4.68;4.15;;;11.80;99.90;;;;;;5086757;28;20058;-39
2023/01/07 00:53:03;;;;;;;4.43;4.03;;;11.80;99.90;;;;;;5086199;28;20048;-38
2023/01/07 00:55:28;;;;;;;5.65;4.57;;;11.80;99.90;;;;;;5086068;28;20106;-41
2023/01/07 00:57:54;;;;;;;6.15;4.65;;;11.80;99.90;;;;;;5087088;28;20880;-37
2023/01/07 01:00:22;;;;;;;5.30;4.80;;;11.80;99.90;;;;;;5085662;28;20028;-35
2023/01/07 01:02:49;;;;;;;5.18;4.68;;;11.80;99.90;;;;;;5086257;28;20772;-39
2023/01/07 01:05:15;;;;;;;5.45;4.35;;;11.80;99.90;;;;;;5085605;28;20028;-37
2023/01/07 01:07:43;;;;;;;5.72;4.45;;;11.80;99.90;;;;;;5085920;28;20028;-40
2023/01/07 01:10:13;;;;;;;5.63;4.60;;;11.80;99.90;;;;;;5085925;28;20023;-38
2023/01/07 01:12:39;;;;;;;5.40;4.68;;;11.80;99.90;;;;;;5086816;28;20097;-40
2023/01/07 01:15:11;;;;;;;5.70;4.93;;;11.70;99.90;;;;;;5085162;28;20013;-40
2023/01/07 01:17:37;;;;;;;5.93;4.95;;;11.80;99.90;;;;;;5086015;28;20032;-39
2023/01/07 01:20:04;;;;;;;5.63;5.00;;;11.80;99.90;;;;;;5085742;28;20024;-41
2023/01/07 01:22:29;;;;;;;5.07;4.63;;;11.80;99.90;;;;;;5085777;28;20024;-40
2023/01/07 01:24:55;;;;;;;7.43;5.20;;;11.80;99.90;;;;;;5086256;28;20030;-40
2023/01/07 01:27:20;;;;;;;6.38;5.50;;;11.80;99.90;;;;;;5085660;28;20158;-40
2023/01/07 01:29:46;;;;;;;6.50;5.00;;;11.80;99.90;;;;;;5085505;28;20020;-40
2023/01/07 01:32:12;;;;;;;5.20;4.70;;;11.80;99.90;;;;;;5085060;28;20048;-39
2023/01/07 01:34:38;;;;;;;6.95;4.97;;;11.80;99.90;;;;;;5085964;28;20028;-38
2023/01/07 01:37:06;;;;;;;6.43;5.00;;;11.80;99.90;;;;;;5084727;28;20024;-40
2023/01/07 01:39:32;;;;;;;5.50;4.70;;;11.80;99.90;;;;;;5086141;28;20023;-39
2023/01/07 01:41:57;;;;;;;7.15;5.75;;;11.80;99.90;;;;;;5085138;28;20039;-38
2023/01/07 01:44:35;;;;;;;5.57;5.07;;;11.80;99.90;;;;;;5085040;28;20020;-39
2023/01/07 01:47:04;;;;;;;5.18;4.68;;;11.80;99.90;;;;;;5084999;28;20468;-39
2023/01/07 01:49:38;;;;;;;5.00;4.50;;;11.80;99.90;;;;;;5085752;28;20028;-39
2023/01/07 01:52:10;;;;;;;6.13;4.80;;;11.80;99.90;;;;;;5084623;28;20097;-37
2023/01/07 01:54:36;;;;;;;5.57;4.65;;;11.80;99.90;;;;;;5085573;28;20023;-38
2023/01/07 01:57:06;;;;;;;5.45;4.35;;;11.80;99.90;;;;;;5084349;28;20489;-40
2023/01/07 01:59:35;;;;;;;4.82;4.13;;;11.80;99.90;;;;;;5085701;28;20135;-41
2023/01/07 02:02:02;;;;;;;6.07;5.20;;;11.90;99.90;;;;;;5084606;28;20105;-39
2023/01/07 02:04:29;;;;;;;5.25;4.60;;;11.90;99.90;;;;;;5084802;28;20021;-36
2023/01/07 02:07:04;;;;;;;5.78;4.80;;;11.90;99.90;;;;;;5085528;28;20034;-37
2023/01/07 02:09:30;;;;;;;5.38;4.38;;;11.90;99.90;;;;;;5085514;28;20024;-40
2023/01/07 02:12:10;;;;;;;6.00;4.63;;;11.90;99.90;;;;;;5084789;28;20047;-39
2023/01/07 02:14:55;;;;;;;4.65;4.15;;;11.90;99.90;;;;;;5085845;28;20044;-39
2023/01/07 02:17:45;;;;;;;4.43;4.03;;;11.90;99.90;;;;;;5084695;28;20027;-39
2023/01/07 02:20:28;;;;;;;5.50;4.28;;;11.90;99.90;;;;;;5084088;28;20028;-39
2023/01/07 02:23:03;;;;;;;6.07;4.43;;;11.90;99.90;;;;;;5084907;28;20076;-39
2023/01/07 02:25:50;;;;;;;5.20;4.10;;;11.80;99.90;;;;;;5084583;28;20031;-37
2023/01/07 02:28:48;;;;;;;5.30;4.03;;;11.90;99.90;;;;;;5084874;28;20081;-39
2023/01/07 02:31:56;;;;;;;4.60;3.63;;;11.80;99.90;;;;;;5063931;28;20027;-39
2023/01/07 02:34:42;;;;;;;5.05;3.67;;;11.80;99.90;;;;;;5058894;28;20122;-39
2023/01/07 02:37:45;;;;;;;4.45;3.10;;;11.80;99.90;;;;;;5083518;28;20642;-39
2023/01/07 02:40:31;;;;;;;;;;;11.80;99.90;;;;;;5075204;28;20028;-40
2023/01/07 02:43:24;;;;;;;3.58;3.25;;;11.80;99.90;;;;;;5079979;28;19929;-40
2023/01/07 02:46:20;;;;;;;4.40;3.85;;;11.80;99.90;;;;;;5084217;28;20038;-40
2023/01/07 02:48:46;;;;;;;4.60;3.63;;;11.80;99.90;;;;;;5050985;28;20025;-37
2023/01/07 02:51:12;;;;;;;3.75;3.30;;;11.70;99.90;;;;;;5080661;28;20028;-38
2023/01/07 02:53:40;;;;;;;3.65;3.03;;;11.70;99.90;;;;;;5083900;28;20027;-38
2023/01/07 02:56:34;;;;;;;3.83;3.42;;;11.70;99.90;;;;;;5083782;28;20024;-39
2023/01/07 02:59:27;;;;;;;4.10;3.10;;;11.80;99.90;;;;;;5084119;28;20039;-40
2023/01/07 03:02:08;;;;;;;3.97;3.58;;;11.80;99.90;;;;;;5084360;28;20024;-39
2023/01/07 03:04:45;;;;;;;3.63;2.88;;;11.80;99.90;;;;;;5085039;28;20024;-40
2023/01/07 03:07:21;;;;;;;3.85;3.55;;;11.70;99.90;;;;;;5063385;28;20045;-38
2023/01/07 03:10:01;;;;;;;5.22;3.90;;;11.70;99.90;;;;;;5080509;28;20472;-39
2023/01/07 03:12:37;;;;;;;4.95;3.90;;;11.70;99.90;;;;;;5064957;28;20515;-36
2023/01/07 03:15:21;;;;;;;3.92;3.42;;;11.70;99.90;;;;;;5079490;28;20722;-40
2023/01/07 03:17:56;;;;;;;4.05;3.55;;;11.70;99.90;;;;;;5064385;28;20691;-39
2023/01/07 03:20:23;;;;;;;3.50;2.85;;;11.70;99.90;;;;;;5081323;28;20663;-37
2023/01/07 03:22:51;;;;;;;3.72;3.25;;;11.70;99.90;;;;;;5083823;28;20729;-39
2023/01/07 03:25:20;;;;;;;4.18;3.20;;;11.70;99.90;;;;;;5083607;28;20036;-39
2023/01/07 03:28:08;;;;;;;6.50;3.65;;;11.70;99.90;;;;;;5084221;28;20027;-39
2023/01/07 03:30:35;;;;;;;4.20;3.45;;;11.70;99.90;;;;;;5083454;28;20161;-35
2023/01/07 03:33:08;;;;;;;5.20;3.78;;;11.70;99.90;;;;;;5083516;28;20067;-40
2023/01/07 03:35:37;;;;;;;3.78;3.33;;;11.60;99.90;;;;;;5082872;28;20368;-39
2023/01/07 03:38:04;;;;;;;4.00;3.40;;;11.60;99.90;;;;;;5083193;28;20850;-38
2023/01/07 03:40:30;;;;;;;4.78;3.28;;;11.50;99.90;;;;;;5084114;28;20031;-39
2023/01/07 03:42:57;;;;;;;4.38;3.30;;;11.50;99.90;;;;;;5082984;28;20479;-39
2023/01/07 03:45:25;;;;;;;3.38;3.00;;;11.50;99.90;;;;;;5083311;28;20085;-39
2023/01/07 03:47:54;;;;;;;3.63;3.03;;;11.50;99.90;;;;;;5084219;28;20054;-39
2023/01/07 03:50:20;;;;;;;4.10;2.92;;;11.50;99.90;;;;;;5087134;28;20028;-38
2023/01/07 03:52:49;;;;;;;4.90;2.83;;;11.50;99.90;;;;;;5088467;28;20028;-39
2023/01/07 03:55:16;;;;;;;4.20;3.35;;;11.50;99.90;;;;;;5087950;28;20055;-39
2023/01/07 03:57:41;;;;;;;5.88;2.92;;;11.50;99.90;;;;;;5087897;28;20024;-39
2023/01/07 04:00:10;;;;;;;3.17;2.78;;;11.50;99.90;;;;;;5087750;28;20092;-37
2023/01/07 04:02:35;;;;;;;3.17;2.60;;;11.50;99.90;;;;;;5088547;28;20028;-38
2023/01/07 04:05:01;;;;;;;3.15;2.83;;;11.50;99.90;;;;;;5086996;28;20035;-37
2023/01/07 04:07:27;;;;;;;8.30;3.22;;;11.50;99.90;;;;;;5087890;28;20119;-41
2023/01/07 04:09:52;;;;;;;3.92;3.08;;;11.50;99.90;;;;;;5088327;28;20024;-36
2023/01/07 04:12:18;;;;;;;4.55;2.78;;;11.40;99.90;;;;;;5086576;28;20030;-39
2023/01/07 04:14:44;;;;;;;3.35;3.05;;;11.40;99.90;;;;;;5087728;28;20043;-39
2023/01/07 04:17:09;;;;;;;3.50;3.03;;;11.40;99.90;;;;;;5087041;28;20064;-38
2023/01/07 04:19:37;;;;;;;4.57;3.05;;;11.30;99.90;;;;;;5087337;28;20024;-39
2023/01/07 04:22:04;;;;;;;3.92;2.83;;;11.30;99.90;;;;;;5086880;28;20031;-38
2023/01/07 04:24:30;;;;;;;4.15;2.65;;;11.20;99.90;;;;;;5087491;28;20109;-37
2023/01/07 04:26:55;;;;;;;3.47;2.80;;;11.20;99.90;;;;;;5087139;28;20111;-37
2023/01/07 04:29:21;;;;;;;3.78;2.90;;;11.20;99.90;;;;;;5086917;28;20039;-39
2023/01/07 04:31:46;;;;;;;3.88;2.65;;;11.10;99.90;;;;;;5086468;28;20052;-39
2023/01/07 04:34:12;;;;;;;2.42;2.10;;;11.10;99.90;;;;;;5086671;28;20764;-39
2023/01/07 04:36:37;;;;;;;3.13;2.83;;;11.10;99.90;;;;;;5087075;28;20059;-38
2023/01/07 04:39:03;;;;;;;3.67;2.78;;;11.10;99.90;;;;;;5086541;28;20024;-36
2023/01/07 04:41:28;;;;;;;3.35;2.47;;;11.00;99.90;;;;;;5089100;28;20058;-38
2023/01/07 04:43:54;;;;;;;4.22;3.30;;;11.00;99.90;;;;;;5089162;28;20072;-37
2023/01/07 04:46:20;;;;;;;3.05;2.45;;;11.00;99.90;;;;;;5087594;28;20360;-38
2023/01/07 04:48:45;;;;;;;4.20;2.65;;;11.00;99.90;;;;;;5087673;28;20647;-37
2023/01/07 04:51:11;;;;;;;3.33;2.70;;;11.10;99.90;;;;;;5087167;28;20053;-37
2023/01/07 04:53:36;;;;;;;2.97;2.35;;;11.00;99.90;;;;;;5086671;28;20202;-39
2023/01/07 04:56:04;;;;;;;3.35;2.60;;;11.00;99.90;;;;;;5086478;28;20518;-39
2023/01/07 04:58:30;;;;;;;4.18;2.70;;;11.00;99.90;;;;;;5086612;28;20471;-37
2023/01/07 05:00:57;;;;;;;3.47;2.08;;;11.00;99.90;;;;;;5086199;28;20069;-40
2023/01/07 05:03:23;;;;;;;2.80;2.20;;;11.00;99.90;;;;;;5086602;28;20048;-36
2023/01/07 05:05:48;;;;;;;2.60;2.08;;;11.10;99.90;;;;;;5087346;28;20051;-39
2023/01/07 05:08:14;;;;;;;3.13;2.15;;;11.00;99.90;;;;;;5086155;28;20084;-38
2023/01/07 05:10:39;;;;;;;2.65;2.40;;;11.10;99.90;;;;;;5086460;28;20584;-40
2023/01/07 05:13:05;;;;;;;3.08;2.33;;;11.10;99.90;;;;;;5086408;28;20736;-39
2023/01/07 05:15:31;;;;;;;2.47;2.28;;;11.00;99.90;;;;;;5086001;28;20793;-39
2023/01/07 05:17:56;;;;;;;3.85;2.55;;;11.00;99.90;;;;;;5086579;28;20075;-39
2023/01/07 05:20:22;;;;;;;3.08;2.60;;;11.00;99.90;;;;;;5086955;28;20375;-39
2023/01/07 05:22:47;;;;;;;2.60;2.40;;;11.10;99.90;;;;;;5085932;28;20578;-38
2023/01/07 05:25:13;;;;;;;3.03;2.33;;;11.10;99.90;;;;;;5086311;28;20024;-37
2023/01/07 05:27:39;;;;;;;3.65;2.30;;;11.10;99.90;;;;;;5086410;28;20063;-40
2023/01/07 05:30:05;;;;;;;3.17;2.40;;;11.20;99.90;;;;;;5085221;28;20024;-40
2023/01/07 05:32:30;;;;;;;4.45;2.50;;;11.10;99.90;;;;;;5086135;28;20051;-39
2023/01/07 05:34:56;;;;;;;4.90;2.40;;;11.20;99.90;;;;;;5085864;28;20615;-39
2023/01/07 05:37:22;;;;;;;2.45;2.25;;;11.20;99.90;;;;;;5086821;28;20016;-38
2023/01/07 05:39:47;;;;;;;3.65;2.22;;;11.20;99.90;;;;;;5086423;28;20745;-38
2023/01/07 05:42:13;;;;;;;2.40;2.20;;;11.30;99.90;;;;;;5085067;28;20039;-39
2023/01/07 05:44:38;;;;;;;2.50;2.30;;;11.30;99.90;;;;;;5085601;28;20126;-39
2023/01/07 05:47:04;;;;;;;2.25;2.03;;;11.30;99.90;;;;;;5085166;28;20104;-37
2023/01/07 05:49:30;;;;;;;3.30;2.25;;;11.30;99.90;;;;;;5085561;28;20058;-39
2023/01/07 05:51:55;;;;;;;2.25;2.05;;;11.30;99.90;;;;;;5085831;28;20024;-39
2023/01/07 05:54:21;;;;;;;2.05;1.85;;;11.40;99.90;;;;;;5085122;28;20036;-39
2023/01/07 05:56:46;;;;;;;3.83;2.50;;;11.40;99.90;;;;;;5085442;28;20112;-39
2023/01/07 05:59:12;;;;;;;4.00;2.03;;;11.40;99.90;;;;;;5085470;28;20046;-39
2023/01/07 06:01:43;;;;;;;2.47;2.28;;;11.40;99.90;;;;;;5085546;28;20460;-39
2023/01/07 06:04:09;;;;;;;2.87;2.17;;;11.40;99.90;;;;;;5085096;28;20022;-37
2023/01/07 06:06:35;;;;;;;2.20;2.00;;;11.40;99.90;;;;;;5085324;28;20024;-40
2023/01/07 06:09:00;;;;;;;4.05;2.25;;;11.40;99.90;;;;;;5085180;28;20028;-40
2023/01/07 06:11:26;;;;;;;3.05;1.98;;;11.40;99.90;;;;;;5084517;28;20359;-40
2023/01/07 06:13:51;;;;;;;2.55;1.90;;;11.40;99.90;;;;;;5085572;28;20360;-39
2023/01/07 06:16:17;;;;;;;2.03;1.70;;;11.30;99.90;;;;;;5084780;28;20476;-40
2023/01/07 06:18:42;;;;;;;2.10;1.90;;;11.40;99.90;;;;;;5085226;28;20028;-40
2023/01/07 06:21:08;;;;;;;2.92;2.13;;;11.40;99.90;;;;;;5084702;28;20065;-36
2023/01/07 06:23:34;;;;;;;3.25;2.10;;;11.40;99.90;;;;;;5084954;28;20027;-39
2023/01/07 06:25:59;;;;;;;2.60;2.10;;;11.40;99.90;;;;;;5084571;28;20527;-39
2023/01/07 06:28:25;;;;;;;2.70;1.90;;;11.40;99.90;;;;;;5085454;28;20044;-39
2023/01/07 06:30:50;;;;;;;3.92;2.35;;;11.40;99.90;;;;;;5085215;28;20031;-39
2023/01/07 06:33:16;;;;;;;1.98;1.80;;;11.40;99.90;;;;;;5083624;28;20052;-37
2023/01/07 06:35:43;;;;;;;3.15;2.13;;;11.40;99.90;;;;;;5084852;28;20016;-39
2023/01/07 06:38:12;;;;;;;2.13;1.92;;;11.40;99.90;;;;;;5084320;28;20812;-39
2023/01/07 06:40:40;;;;;;;3.38;1.85;;;11.40;99.90;;;;;;5084948;28;20039;-40
2023/01/07 06:43:06;;;;;;;2.58;2.10;;;11.40;99.90;;;;;;5084698;28;20452;-41
2023/01/07 06:45:31;;;;;;;2.72;1.90;;;11.50;99.90;;;;;;5084613;28;20028;-39
2023/01/07 06:47:57;;;;;;;2.78;1.80;;;11.40;99.90;;;;;;5084651;28;20024;-38
2023/01/07 06:50:23;;;;;;;2.13;1.80;;;11.50;99.90;;;;;;5084884;28;20088;-37
2023/01/07 06:52:49;;;;;;;2.20;1.77;;;11.50;99.90;;;;;;5084505;28;20047;-37
2023/01/07 06:55:14;;;;;;;2.65;1.70;;;11.40;99.90;;;;;;5084533;28;20020;-41
2023/01/07 06:57:40;;;;;;;2.67;1.73;;;11.50;99.90;;;;;;5084117;28;20853;-41
2023/01/07 07:00:06;;;;;;;2.67;1.73;;;11.50;99.90;;;;;;5083802;28;20383;-39
2023/01/07 07:02:32;;;;;;;2.22;1.88;;;11.50;99.90;;;;;;5084284;28;20031;-40
2023/01/07 07:04:57;;;;;;;2.00;1.42;;;11.50;99.90;;;;;;5084246;28;20380;-40
2023/01/07 07:07:24;;;;;;;2.03;1.40;;;11.50;99.90;;;;;;5083817;28;20034;-40
2023/01/07 07:09:49;;;;;;;2.95;1.50;;;11.50;99.90;;;;;;5084660;28;20043;-38
2023/01/07 07:12:15;;;;;;;2.47;1.80;;;11.50;99.90;;;;;;5084069;28;20027;-39
2023/01/07 07:14:41;;;;;;;2.47;1.70;;;11.50;99.90;;;;;;5084001;28;20471;-40
2023/01/07 07:17:07;;;;;;;2.85;1.60;;;11.50;99.90;;;;;;5083747;28;20024;-37
2023/01/07 07:19:32;;;;;;;2.30;1.60;;;11.50;99.90;;;;;;5084506;28;20024;-40
2023/01/07 07:21:58;;;;;;;1.92;1.60;;;11.60;99.90;;;;;;5083577;28;20016;-41
2023/01/07 07:24:24;;;;;;;1.92;1.40;;;11.50;99.90;;;;;;5083663;28;20024;-37
2023/01/07 07:26:52;;;;;;;2.63;1.50;;;11.60;99.90;;;;;;5084309;28;20048;-38
2023/01/07 07:29:17;;;;;;;3.15;1.42;;;11.60;99.90;;;;;;5082881;28;20140;-38
2023/01/07 07:31:43;;;;;;;2.05;1.50;;;11.60;99.90;;;;;;5083588;28;20135;-39
2023/01/07 07:34:10;;;;;;;1.67;1.40;;;11.50;99.90;;;;;;5083282;28;20090;-40
2023/01/07 07:36:36;;;;;;;2.05;1.70;;;11.50;99.90;;;;;;5083701;28;20696;-36
2023/01/07 07:39:03;;;;;;;2.95;1.92;;;11.50;99.90;;;;;;5083474;28;20124;-39
2023/01/07 07:41:29;;;;;;;3.25;1.52;;;11.60;99.90;;;;;;5083800;28;20103;-39
2023/01/07 07:43:55;;;;;;;1.50;1.35;;;11.60;99.90;;;;;;5084028;28;20024;-39
2023/01/07 07:46:21;;;;;;;3.05;1.48;;;11.60;99.90;;;;;;5083535;28;20467;-40
2023/01/07 07:48:49;;;;;;;1.83;1.50;;;11.60;99.90;;;;;;5082827;28;20012;-40
2023/01/07 07:51:15;;;;;;;1.90;1.40;;;11.60;99.90;;;;;;5083390;28;20590;-39
2023/01/07 07:53:41;;;;;;;2.03;1.60;;;11.60;99.90;;;;;;5084041;28;20068;-39
2023/01/07 07:56:07;;;;;;;2.50;1.80;;;11.60;99.90;;;;;;5083259;28;20128;-39
2023/01/07 07:58:33;;;;;;;3.80;1.70;;;11.60;99.90;;;;;;5083564;28;20123;-40
2023/01/07 08:00:58;;;;;;;1.40;1.30;;;11.60;99.90;;;;;;5083793;28;20103;-40
2023/01/07 08:03:24;;;;;;;2.88;1.40;;;11.60;99.90;;;;;;5083006;28;20031;-38
2023/01/07 08:05:56;;;;;;;2.33;1.25;;;11.60;99.90;;;;;;5083748;28;20089;-40
2023/01/07 08:08:21;;;;;;;1.55;1.27;;;11.60;99.90;;;;;;5083466;28;20764;-38
2023/01/07 08:10:56;;;;;;;1.80;1.40;;;11.60;99.90;;;;;;5082915;28;20070;-40
2023/01/07 08:13:22;;;;;;;2.28;1.60;;;11.60;99.90;;;;;;5082821;28;20069;-38
2023/01/07 08:15:47;;;;;;;1.48;1.23;;;11.70;99.90;;;;;;5084198;28;20122;-40
2023/01/07 08:18:13;;;;;;;2.13;1.35;;;11.60;99.90;;;;;;5083017;28;20115;-39
2023/01/07 08:20:39;;;;;;;2.65;1.42;;;11.70;99.90;;;;;;5083899;28;20032;-40
2023/01/07 08:23:06;;;;;;;1.65;1.23;;;11.60;99.90;;;;;;5083757;28;20119;-40
2023/01/07 08:25:32;;;;;;;2.90;1.40;;;11.60;99.90;;;;;;5082586;28;20032;-41
2023/01/07 08:27:59;;;;;;;1.60;1.30;;;11.60;99.90;;;;;;5083698;28;20020;-40
2023/01/07 08:30:25;;;;;;;3.13;1.35;;;11.70;99.90;;;;;;5083432;28;20024;-40
2023/01/07 08:32:51;;;;;;;1.65;1.42;;;11.70;99.90;;;;;;5082754;28;20048;-39
2023/01/07 08:35:17;;;;;;;1.50;1.30;;;11.70;99.90;;;;;;5083553;28;20036;-40
2023/01/07 08:37:42;;;;;;;2.00;1.63;;;11.70;99.90;;;;;;5087166;28;20024;-38
2023/01/07 08:40:09;;;;;;;2.42;1.58;;;11.70;99.90;;;;;;5086541;28;20024;-39
2023/01/07 08:42:35;;;;;;;1.95;1.42;;;11.70;99.90;;;;;;5087441;28;20107;-38
2023/01/07 08:45:00;;;;;;;1.77;1.15;;;11.70;99.90;;;;;;5086120;28;20111;-40
2023/01/07 08:47:26;;;;;;;1.88;1.30;;;11.70;99.90;;;;;;5087002;28;20028;-39
2023/01/07 08:49:53;;;;;;;1.70;1.60;;;11.70;99.90;;;;;;5087002;28;20104;-40
2023/01/07 08:52:20;;;;;;;1.33;1.23;;;11.70;99.90;;;;;;5086039;28;20028;-40
2023/01/07 08:54:46;;;;;;;2.95;1.20;;;11.80;99.90;;;;;;5086930;28;20119;-39
2023/01/07 08:57:16;;;;;;;1.60;1.50;;;11.70;99.90;;;;;;5086623;28;20315;-38
2023/01/07 08:59:42;;;;;;;1.60;1.50;;;11.80;99.90;;;;;;5086632;28;20032;-39
2023/01/07 09:02:16;;;;;;;1.95;1.55;;;11.80;99.90;;;;;;5085721;28;20456;-39
2023/01/07 09:04:41;;;;;;;2.03;1.48;;;11.80;99.90;;;;;;5087184;28;20048;-40
2023/01/07 09:07:07;;;;;;;1.63;1.50;;;11.80;99.90;;;;;;5085490;28;20516;-40
2023/01/07 09:09:33;;;;;;;2.15;1.60;;;11.80;99.90;;;;;;5087177;28;20036;-40
2023/01/07 09:11:59;;;;;;;2.33;1.40;;;11.80;99.90;;;;;;5085638;28;20028;-40
2023/01/07 09:14:27;;;;;;;2.03;1.70;;;11.90;99.90;;;;;;5066155;28;20060;-40
2023/01/07 09:16:53;;;;;;;1.52;1.40;;;11.90;99.90;;;;;;5081370;28;20028;-40
2023/01/07 09:19:18;;;;;;;2.17;1.70;;;11.90;99.90;;;;;;5086057;28;20035;-40
2023/01/07 09:21:44;;;;;;;2.45;1.50;;;11.90;99.90;;;;;;5085733;28;20020;-41
2023/01/07 09:24:09;;;;;;;1.35;1.25;;;11.90;99.90;;;;;;5086353;28;20078;-40
2023/01/07 09:26:35;;;;;;;1.73;1.20;;;11.90;99.90;;;;;;5085830;28;20035;-39
2023/01/07 09:29:01;;;;;;;3.67;1.73;;;12.00;99.90;;;;;;5085064;28;20063;-39
2023/01/07 09:31:26;;;;;;;2.00;1.70;;;11.90;99.90;;;;;;5085803;28;20143;-38
2023/01/07 09:33:52;;;;;;;1.60;1.42;;;12.00;99.90;;;;;;5086209;28;20476;-38
2023/01/07 09:36:17;;;;;;;1.88;1.40;;;12.00;99.90;;;;;;5084632;28;20032;-40
2023/01/07 09:38:52;;;;;;;1.30;1.20;;;12.00;99.90;;;;;;5085961;28;20020;-40
2023/01/07 09:41:50;;;;;;;1.85;1.25;;;12.10;99.90;;;;;;5085250;28;20135;-39
2023/01/07 09:44:30;;;;;;;2.13;1.50;;;12.10;99.90;;;;;;5076092;28;20024;-38
2023/01/07 09:46:57;;;;;;;1.23;1.13;;;12.10;99.90;;;;;;5086013;28;20060;-40
2023/01/07 09:49:28;;;;;;;1.38;1.27;;;12.10;99.90;;;;;;5085510;28;20016;-41
2023/01/07 09:52:00;;;;;;;1.70;1.55;;;12.10;99.90;;;;;;5086351;28;20020;-39
2023/01/07 09:54:29;;;;;;;2.65;1.80;;;12.10;99.90;;;;;;5075022;28;20063;-39
2023/01/07 09:56:54;;;;;;;2.28;1.95;;;12.10;99.90;;;;;;5085197;28;20124;-40
2023/01/07 09:59:20;;;;;;;1.80;1.60;;;12.10;99.90;;;;;;5085905;28;20114;-40
2023/01/07 10:01:57;;;;;;;1.85;1.48;;;12.10;99.90;;;;;;5085543;28;20035;-40
2023/01/07 10:04:41;;;;;;;1.50;1.20;;;12.10;99.90;;;;;;5081674;28;20036;-39
2023/01/07 10:07:58;;;;;;;1.30;1.20;;;12.20;99.90;;;;;;5085114;28;20020;-40
2023/01/07 10:10:40;;;;;;;1.50;1.40;;;12.20;99.90;;;;;;5031728;28;20040;-39
2023/01/07 10:13:50;;;;;;;1.40;1.27;;;12.20;99.90;;;;;;5085483;28;20024;-36
2023/01/07 10:16:39;;;;;;;1.83;1.23;;;12.20;99.90;;;;;;5084303;28;20043;-37
2023/01/07 10:19:20;;;;;;;1.70;1.20;;;12.20;99.90;;;;;;5084744;28;20044;-35
2023/01/07 10:21:57;;;;;;;1.70;1.60;;;12.20;99.90;;;;;;5065063;28;20020;-40
2023/01/07 10:24:31;;;;;;;1.33;1.23;;;12.20;99.90;;;;;;5080668;28;20487;-37
2023/01/07 10:27:09;;;;;;;1.58;1.33;;;12.30;99.90;;;;;;5065404;28;20028;-34
2023/01/07 10:29:41;;;;;;;1.50;1.40;;;12.30;99.90;;;;;;5081645;28;20490;-39
2023/01/07 10:32:13;;;;;;;2.40;1.80;;;12.30;99.90;;;;;;5083790;28;20048;-41
2023/01/07 10:34:47;;;;;;;1.23;1.13;;;12.40;99.90;;;;;;5084908;28;20388;-40
2023/01/07 10:37:31;;;;;;;1.50;1.20;;;12.30;99.90;;;;;;5064762;28;20020;-39
2023/01/07 10:40:07;;;;;;;1.50;1.38;;;12.40;99.90;;;;;;5081738;28;20055;-38
2023/01/07 10:42:41;;;;;;;1.52;1.10;;;12.40;99.90;;;;;;5085313;28;20497;-41
2023/01/07 10:45:14;;;;;;;1.33;1.23;;;12.40;99.90;;;;;;5083501;28;20069;-39
2023/01/07 10:48:11;;;;;;;1.92;1.40;;;12.40;99.90;;;;;;5085353;28;20063;-37
2023/01/07 10:50:50;;;;;;;1.55;1.30;;;12.40;99.90;;;;;;5084969;28;20076;-40
2023/01/07 10:53:37;;;;;;;2.03;1.58;;;12.50;99.90;;;;;;5083546;28;20050;-39
2023/01/07 10:56:20;;;;;;;2.22;1.75;;;12.40;99.90;;;;;;5084217;28;20426;-40
2023/01/07 10:58:48;;;;;;;1.30;1.20;;;12.40;99.90;;;;;;5083734;28;20023;-40
2023/01/07 11:01:27;;;;;;;1.42;1.10;;;12.40;99.90;;;;;;5080574;28;20028;-39
2023/01/07 11:03:55;;;;;;;1.30;1.10;;;12.40;99.90;;;;;;5084492;28;20367;-39
2023/01/07 11:06:36;;;;;;;1.83;1.17;;;12.40;99.90;;;;;;5083024;28;20024;-40
2023/01/07 11:09:07;;;;;;;1.20;1.00;;;12.40;99.90;;;;;;5083876;28;20027;-40
2023/01/07 11:11:33;;;;;;;1.73;1.10;;;12.50;99.90;;;;;;5084769;28;20103;-40
2023/01/07 11:14:09;;;;;;;2.05;0.90;;;12.50;99.90;;;;;;5083468;28;20127;-39
2023/01/07 11:16:46;;;;;;;1.50;1.00;;;12.50;99.90;;;;;;5085010;28;20016;-43
2023/01/07 11:19:12;;;;;;;0.82;0.80;;;12.50;99.90;;;;;;5084088;28;20119;-38
2023/01/07 11:21:47;;;;;;;1.10;1.00;;;12.50;99.90;;;;;;5084705;28;20120;-36
2023/01/07 11:24:18;;;;;;;1.80;1.33;;;12.50;99.90;;;;;;5085607;28;20113;-38
2023/01/07 11:26:45;;;;;;;1.30;1.20;;;12.60;99.90;;;;;;5084768;28;20383;-42
2023/01/07 11:29:26;;;;;;;1.30;1.02;;;12.60;99.90;;;;;;5084947;28;20479;-40
2023/01/07 11:31:54;;;;;;;1.38;1.23;;;12.70;99.90;;;;;;5084217;28;20059;-40
2023/01/07 11:34:27;;;;;;;2.42;1.40;;;12.70;99.90;;;;;;5083292;28;20028;-37
2023/01/07 11:36:52;;;;;;;;;;;12.80;99.90;;;;;;5084135;28;20483;-39
2023/01/07 11:39:24;;;;;;;2.88;1.10;;;12.80;99.90;;;;;;5084257;28;19915;-38
2023/01/07 11:42:37;;;;;;;1.27;0.93;;;12.80;99.90;;;;;;5082952;28;20024;-40
2023/01/07 11:45:17;;;;;;;0.88;0.88;;;12.90;99.90;;;;;;5064205;28;20601;-40
2023/01/07 11:47:58;;;;;;;1.85;1.27;;;12.90;99.90;;;;;;5083486;28;20020;-38
2023/01/07 11:50:40;;;;;;;1.60;1.00;;;13.00;99.90;;;;;;5083762;28;20028;-41
2023/01/07 11:53:14;;;;;;;1.25;1.05;;;12.90;99.90;;;;;;5080620;28;20379;-39
2023/01/07 11:56:05;;;;;;;1.10;1.00;;;13.00;99.90;;;;;;5083626;28;20386;-41
2023/01/07 11:58:36;;;;;;;3.35;1.00;;;13.00;99.90;;;;;;5078624;28;20482;-40
2023/01/07 12:01:06;;;;;;;1.23;1.13;;;13.00;99.90;;;;;;5083482;28;20020;-40
2023/01/07 12:03:51;;;;;;;0.98;0.88;;;13.10;99.90;;;;;;5083879;28;20065;-40
2023/01/07 12:06:24;;;;;;;1.33;1.10;;;13.00;99.90;;;;;;5083179;28;20035;-41
2023/01/07 12:09:13;;;;;;;1.10;1.00;;;13.00;99.90;;;;;;5083425;28;20016;-40
2023/01/07 12:11:41;;;;;;;1.23;1.10;;;13.00;99.90;;;;;;5087978;28;20020;-39
2023/01/07 12:14:16;;;;;;;1.45;1.10;;;13.00;99.90;;;;;;5076347;28;20028;-38
2023/01/07 12:16:43;;;;;;;1.35;1.25;;;13.00;99.90;;;;;;5087018;28;20016;-40
2023/01/07 12:19:35;;;;;;;1.55;1.02;;;13.00;99.90;;;;;;5086505;28;20049;-40
2023/01/07 12:22:25;;;;;;;1.13;1.02;;;12.90;99.90;;;;;;5086795;28;20041;-38
2023/01/07 12:25:27;;;;;;;1.73;1.30;;;12.90;99.90;;;;;;5079174;28;20054;-39
2023/01/07 12:28:18;;;;;;;1.53;1.10;;;12.90;99.90;;;;;;5086682;28;20035;-39
2023/01/07 12:31:17;;;;;;;1.25;0.80;;;12.90;99.90;;;;;;5086771;28;20020;-40
2023/01/07 12:33:53;;;;;;;2.88;1.65;;;12.90;99.90;;;;;;5087343;28;20055;-40
2023/01/07 12:37:00;;;;;;;1.27;0.90;;;12.90;99.90;;;;;;5066913;28;20024;-40
2023/01/07 12:39:39;;;;;;;1.58;1.00;;;12.90;99.90;;;;;;5087002;28;20016;-40
2023/01/07 12:42:26;;;;;;;3.10;1.10;;;12.90;99.90;;;;;;5086647;28;20028;-40
2023/01/07 12:44:56;;;;;;;2.60;1.50;;;12.90;99.90;;;;;;5086004;28;20023;-41
2023/01/07 12:47:49;;;;;;;1.77;1.33;;;12.90;99.90;;;;;;5087240;28;20035;-39
2023/01/07 12:50:26;;;;;;;2.10;1.40;;;12.90;99.90;;;;;;5086667;28;20028;-37
2023/01/07 12:53:16;;;;;;;1.40;1.30;;;12.90;99.90;;;;;;5086373;28;20105;-38
2023/01/07 12:55:55;;;;;;;1.95;1.38;;;12.90;99.90;;;;;;5077691;28;20464;-38
2023/01/07 12:58:32;;;;;;;4.35;1.23;;;12.80;99.90;;;;;;5086196;28;20032;-39
2023/01/07 13:01:24;;;;;;;1.65;1.20;;;12.80;99.90;;;;;;5086433;28;20392;-39
2023/01/07 13:04:25;;;;;;;1.98;1.60;;;12.80;99.90;;;;;;5086451;28;20026;-41
2023/01/07 13:07:14;;;;;;;2.28;1.55;;;12.90;99.90;;;;;;5085766;28;20056;-41
2023/01/07 13:09:40;;;;;;;1.92;1.70;;;12.90;99.90;;;;;;5086579;28;20028;-39